createdAt,value
2018-04-15T00:02:15.442Z,106.67
2018-04-15T00:04:43.886Z,101.53
2018-04-15T00:07:12.250Z,103.47
2018-04-15T00:09:40.497Z,106.40
2018-04-15T00:12:08.687Z,103.40
2018-04-15T00:14:37.734Z,102.23
2018-04-15T00:17:06.757Z,95.23
2018-04-15T00:19:35.794Z,92.03
2018-04-15T00:22:04.020Z,93.40
2018-04-15T00:24:32.248Z,98.90
2018-04-15T00:27:00.437Z,98.40
2018-04-15T00:29:28.831Z,87.87
2018-04-15T00:31:57.054Z,86.63
2018-04-15T00:34:25.291Z,88.27
2018-04-15T00:36:54.117Z,85.13
2018-04-15T00:39:22.330Z,82.80
2018-04-15T00:41:50.568Z,77.17
2018-04-15T00:44:18.785Z,72.87
2018-04-15T00:46:47.102Z,77.40
2018-04-15T00:49:16.671Z,82.07
2018-04-15T00:51:45.702Z,64.37
2018-04-15T00:54:18.583Z,60.57
2018-04-15T00:56:48.283Z,63.33
2018-04-15T00:59:16.547Z,62.70
2018-04-15T01:01:44.736Z,60.90
2018-04-15T01:04:12.914Z,58.00
2018-04-15T01:06:41.896Z,58.83
2018-04-15T01:09:10.078Z,56.73
2018-04-15T01:11:38.275Z,56.37
2018-04-15T01:14:06.486Z,55.00
2018-04-15T01:16:34.785Z,52.37
2018-04-15T01:19:03.020Z,50.63
2018-04-15T01:21:31.434Z,48.53
2018-04-15T01:23:59.843Z,52.93
2018-04-15T01:26:28.045Z,53.87
2018-04-15T01:28:56.712Z,54.83
2018-04-15T01:31:25.754Z,58.23
2018-04-15T01:33:54.020Z,66.47
2018-04-15T01:36:23.257Z,68.07
2018-04-15T01:38:51.481Z,69.13
2018-04-15T01:41:19.847Z,71.33
2018-04-15T01:43:48.216Z,69.07
2018-04-15T01:46:17.208Z,67.70
2018-04-15T01:48:45.411Z,63.87
2018-04-15T01:51:13.615Z,59.83
2018-04-15T01:53:42.024Z,60.60
2018-04-15T01:56:10.297Z,62.10
2018-04-15T01:58:39.323Z,69.70
2018-04-15T02:01:08.321Z,73.17
2018-04-15T02:03:37.345Z,66.20
2018-04-15T02:06:05.666Z,57.57
2018-04-15T02:08:34.052Z,60.20
2018-04-15T02:11:03.034Z,56.80
2018-04-15T02:13:31.274Z,54.87
2018-04-15T02:16:00.312Z,54.67
2018-04-15T02:18:28.593Z,52.90
2018-04-15T02:20:56.807Z,55.07
2018-04-15T02:23:25.135Z,60.80
2018-04-15T02:25:53.324Z,65.10
2018-04-15T02:28:21.528Z,76.23
2018-04-15T02:30:49.877Z,83.03
2018-04-15T02:33:18.160Z,82.30
2018-04-15T02:35:46.479Z,91.67
2018-04-15T02:38:17.070Z,88.47
2018-04-15T02:40:45.273Z,81.67
2018-04-15T02:43:14.440Z,85.13
2018-04-15T02:45:42.671Z,84.33
2018-04-15T02:48:12.577Z,82.23
2018-04-15T02:50:41.083Z,83.67
2018-04-15T02:53:09.352Z,84.07
2018-04-15T02:55:37.688Z,84.60
2018-04-15T02:58:05.947Z,74.80
2018-04-15T03:00:34.202Z,76.57
2018-04-15T03:03:02.476Z,71.27
2018-04-15T03:05:30.810Z,75.17
2018-04-15T03:07:59.056Z,72.40
2018-04-15T03:10:27.348Z,75.00
2018-04-15T03:12:55.558Z,75.90
2018-04-15T03:15:24.728Z,91.00
2018-04-15T03:17:52.958Z,79.83
2018-04-15T03:20:21.714Z,77.90
2018-04-15T03:22:50.065Z,67.10
2018-04-15T03:25:18.265Z,69.87
2018-04-15T03:27:47.333Z,66.70
2018-04-15T03:30:15.533Z,65.60
2018-04-15T03:32:43.773Z,70.57
2018-04-15T03:35:12.172Z,71.73
2018-04-15T03:37:41.355Z,69.67
2018-04-15T03:40:09.768Z,71.20
2018-04-15T03:42:38.212Z,64.17
2018-04-15T03:45:06.627Z,68.87
2018-04-15T03:47:34.995Z,71.03
2018-04-15T03:50:03.375Z,79.87
2018-04-15T03:52:31.759Z,74.13
2018-04-15T03:55:00.241Z,70.57
2018-04-15T03:57:28.501Z,71.80
2018-04-15T03:59:56.710Z,62.00
2018-04-15T04:02:24.930Z,58.57
2018-04-15T04:04:53.161Z,57.20
2018-04-15T04:07:21.524Z,53.93
2018-04-15T04:09:50.018Z,52.40
2018-04-15T04:12:18.252Z,53.77
2018-04-15T04:14:47.198Z,52.07
2018-04-15T04:17:16.252Z,51.00
2018-04-15T04:19:56.560Z,50.80
2018-04-15T04:25:43.550Z,45.03
2018-04-15T04:28:11.807Z,42.13
2018-04-15T04:30:41.547Z,39.73
2018-04-15T04:33:09.798Z,37.00
2018-04-15T04:35:38.816Z,34.70
2018-04-15T04:38:07.036Z,33.70
2018-04-15T04:40:36.152Z,30.53
2018-04-15T04:43:05.406Z,28.30
2018-04-15T04:45:33.636Z,28.40
2018-04-15T04:48:02.066Z,25.80
2018-04-15T04:50:30.466Z,25.90
2018-04-15T04:52:58.741Z,24.93
2018-04-15T04:55:27.135Z,24.40
2018-04-15T04:57:55.489Z,24.40
2018-04-15T05:00:23.971Z,22.83
2018-04-15T05:02:52.267Z,23.77
2018-04-15T05:05:20.598Z,22.57
2018-04-15T05:07:48.907Z,22.63
2018-04-15T05:10:17.288Z,22.03
2018-04-15T05:12:46.621Z,23.13
2018-04-15T05:15:15.840Z,23.50
2018-04-15T05:17:44.111Z,23.53
2018-04-15T05:20:13.342Z,23.13
2018-04-15T05:22:41.750Z,22.83
2018-04-15T05:25:10.136Z,20.87
2018-04-15T05:27:38.729Z,20.93
2018-04-15T05:30:07.817Z,20.83
2018-04-15T05:32:36.219Z,19.97
2018-04-15T05:35:05.393Z,19.70
2018-04-15T05:37:33.789Z,18.50
2018-04-15T05:40:02.129Z,18.47
2018-04-15T05:42:30.533Z,19.43
2018-04-15T05:44:59.920Z,18.53
2018-04-15T05:47:28.506Z,17.20
2018-04-15T05:49:56.734Z,17.23
2018-04-15T05:52:25.942Z,16.93
2018-04-15T05:54:54.285Z,15.27
2018-04-15T05:57:22.677Z,15.20
2018-04-15T05:59:50.972Z,16.63
2018-04-15T06:02:19.999Z,16.70
2018-04-15T06:04:48.342Z,15.40
2018-04-15T06:07:17.485Z,15.63
2018-04-15T06:09:48.140Z,15.97
2018-04-15T06:12:16.843Z,14.23
2018-04-15T06:14:45.104Z,14.13
2018-04-15T06:17:13.598Z,13.27
2018-04-15T06:19:42.181Z,12.63
2018-04-15T06:22:11.322Z,12.17
2018-04-15T06:24:39.787Z,11.93
2018-04-15T06:27:08.142Z,11.80
2018-04-15T06:29:36.747Z,13.30
2018-04-15T06:32:05.227Z,12.03
2018-04-15T06:34:34.315Z,11.00
2018-04-15T06:37:03.389Z,9.73
2018-04-15T06:39:31.698Z,10.63
2018-04-15T06:42:00.730Z,9.60
2018-04-15T06:44:29.765Z,11.13
2018-04-15T06:46:58.060Z,17.50
2018-04-15T06:49:27.219Z,10.20
2018-04-15T06:51:55.575Z,9.33
2018-04-15T06:54:24.569Z,16.73
2018-04-15T06:56:53.551Z,29.53
2018-04-15T06:59:22.166Z,11.50
2018-04-15T07:01:50.442Z,10.20
2018-04-15T07:04:19.442Z,12.90
2018-04-15T07:06:48.043Z,9.83
2018-04-15T07:09:16.298Z,9.73
2018-04-15T07:11:44.744Z,10.90
2018-04-15T07:14:14.499Z,9.80
2018-04-15T07:16:43.696Z,39.13
2018-04-15T07:19:12.707Z,33.00
2018-04-15T07:21:41.946Z,12.00
2018-04-15T07:24:10.966Z,14.93
2018-04-15T07:26:39.323Z,11.00
2018-04-15T07:29:07.633Z,14.07
2018-04-15T07:31:36.637Z,83.80
2018-04-15T07:34:05.165Z,22.37
2018-04-15T07:36:33.500Z,76.57
2018-04-15T07:39:02.499Z,23.23
2018-04-15T07:41:30.758Z,39.67
2018-04-15T07:44:00.354Z,14.17
2018-04-15T07:46:29.420Z,9.03
2018-04-15T07:48:57.684Z,27.37
2018-04-15T07:51:26.786Z,9.77
2018-04-15T07:53:55.110Z,10.47
2018-04-15T07:56:23.546Z,9.33
2018-04-15T07:58:51.758Z,20.47
2018-04-15T08:01:20.096Z,24.70
2018-04-15T08:03:48.330Z,12.87
2018-04-15T08:06:17.333Z,16.93
2018-04-15T08:08:46.062Z,10.97
2018-04-15T08:11:14.344Z,8.60
2018-04-15T08:13:42.624Z,9.17
2018-04-15T08:16:10.975Z,8.20
2018-04-15T08:18:39.240Z,8.30
2018-04-15T08:21:07.470Z,8.37
2018-04-15T08:23:36.954Z,8.50
2018-04-15T08:26:05.242Z,8.00
2018-04-15T08:28:33.717Z,9.73
2018-04-15T08:31:02.027Z,8.57
2018-04-15T08:33:30.358Z,7.70
2018-04-15T08:35:58.754Z,7.03
2018-04-15T08:38:27.009Z,6.90
2018-04-15T08:40:55.483Z,6.77
2018-04-15T08:43:24.444Z,6.47
2018-04-15T08:45:52.649Z,6.43
2018-04-15T08:48:21.657Z,6.43
2018-04-15T08:50:50.065Z,7.17
2018-04-15T08:53:18.319Z,6.53
2018-04-15T08:55:47.631Z,6.17
2018-04-15T08:58:15.886Z,5.90
2018-04-15T09:00:44.246Z,5.30
2018-04-15T09:03:13.295Z,5.70
2018-04-15T09:05:41.875Z,5.90
2018-04-15T09:08:10.113Z,5.80
2018-04-15T09:10:39.180Z,4.47
2018-04-15T09:13:08.179Z,4.37
2018-04-15T09:15:37.948Z,5.10
2018-04-15T09:18:06.222Z,5.10
2018-04-15T09:20:34.481Z,5.80
2018-04-15T09:23:02.724Z,5.47
2018-04-15T09:25:31.010Z,5.67
2018-04-15T09:27:59.245Z,5.10
2018-04-15T09:30:27.508Z,4.90
2018-04-15T09:32:55.757Z,5.10
2018-04-15T09:35:23.973Z,5.30
2018-04-15T09:37:52.217Z,5.00
2018-04-15T09:43:24.686Z,4.40
2018-04-15T09:45:52.881Z,4.73
2018-04-15T09:48:21.977Z,4.60
2018-04-15T09:50:51.951Z,4.90
2018-04-15T09:53:20.217Z,4.57
2018-04-15T09:55:48.517Z,4.73
2018-04-15T09:58:17.537Z,4.50
2018-04-15T10:00:47.512Z,5.00
2018-04-15T10:03:16.144Z,4.70
2018-04-15T10:05:44.437Z,4.37
2018-04-15T10:08:12.692Z,4.90
2018-04-15T10:10:41.968Z,4.57
2018-04-15T10:13:16.756Z,4.43
2018-04-15T10:15:45.404Z,4.83
2018-04-15T10:18:13.912Z,5.60
2018-04-15T10:20:43.337Z,5.13
2018-04-15T10:23:11.532Z,5.17
2018-04-15T10:25:39.814Z,4.67
2018-04-15T10:28:08.051Z,4.47
2018-04-15T10:30:37.101Z,4.70
2018-04-15T10:33:05.373Z,5.00
2018-04-15T10:35:34.377Z,4.40
2018-04-15T10:38:02.597Z,5.10
2018-04-15T10:40:30.820Z,4.87
2018-04-15T10:42:59.185Z,5.53
2018-04-15T10:45:27.387Z,7.03
2018-04-15T10:47:55.606Z,6.60
2018-04-15T10:50:24.071Z,7.53
2018-04-15T10:52:52.313Z,6.03
2018-04-15T10:55:20.582Z,7.00
2018-04-15T10:57:48.806Z,7.03
2018-04-15T11:00:17.045Z,5.50
2018-04-15T11:02:45.457Z,6.27
2018-04-15T11:05:15.230Z,6.80
2018-04-15T11:07:43.457Z,9.10
2018-04-15T11:10:12.461Z,9.20
2018-04-15T11:12:41.569Z,8.80
2018-04-15T11:15:10.554Z,9.07
2018-04-15T11:17:39.519Z,9.43
2018-04-15T11:20:07.775Z,9.43
2018-04-15T11:22:36.020Z,7.87
2018-04-15T11:25:04.384Z,7.57
2018-04-15T11:27:32.644Z,7.00
2018-04-15T11:30:00.850Z,5.00
2018-04-15T11:32:29.850Z,5.83
2018-04-15T11:34:58.864Z,5.93
2018-04-15T11:37:27.122Z,5.63
2018-04-15T11:39:55.395Z,5.97
2018-04-15T11:42:23.644Z,6.00
2018-04-15T11:44:53.515Z,5.10
2018-04-15T11:47:21.722Z,5.53
2018-04-15T11:49:49.977Z,5.07
2018-04-15T11:52:19.752Z,4.03
2018-04-15T11:54:48.019Z,4.13
2018-04-15T11:57:16.293Z,3.70
2018-04-15T11:59:45.297Z,3.67
2018-04-15T12:02:13.573Z,4.07
2018-04-15T12:04:41.875Z,3.80
2018-04-15T12:07:11.116Z,3.70
2018-04-15T12:09:40.972Z,3.80
2018-04-15T12:12:09.250Z,4.13
2018-04-15T12:14:38.204Z,3.57
2018-04-15T12:17:07.256Z,4.00
2018-04-15T12:19:35.557Z,3.47
2018-04-15T12:22:04.678Z,3.30
2018-04-15T12:24:33.657Z,3.60
2018-04-15T12:27:02.025Z,3.63
2018-04-15T12:29:30.261Z,3.43
2018-04-15T12:31:58.464Z,3.50
2018-04-15T12:34:26.780Z,3.80
2018-04-15T12:36:55.010Z,4.03
2018-04-15T12:39:23.957Z,3.80
2018-04-15T12:41:52.278Z,4.07
2018-04-15T12:44:20.529Z,4.17
2018-04-15T12:46:48.775Z,4.80
2018-04-15T12:49:17.001Z,4.40
2018-04-15T12:51:45.257Z,4.60
2018-04-15T12:54:13.456Z,4.60
2018-04-15T12:56:41.734Z,4.07
2018-04-15T12:59:10.727Z,4.27
2018-04-15T13:01:39.349Z,4.47
2018-04-15T13:04:07.638Z,4.30
2018-04-15T13:06:35.859Z,5.03
2018-04-15T13:09:04.295Z,4.70
2018-04-15T13:11:32.511Z,5.00
2018-04-15T13:14:01.501Z,4.97
2018-04-15T13:16:30.485Z,4.73
2018-04-15T13:18:58.729Z,4.77
2018-04-15T13:21:28.007Z,4.47
2018-04-15T13:23:56.272Z,5.10
2018-04-15T13:26:25.256Z,5.43
2018-04-15T13:28:54.557Z,5.80
2018-04-15T13:31:23.569Z,5.87
2018-04-15T13:33:52.546Z,6.50
2018-04-15T13:36:21.526Z,6.23
2018-04-15T13:38:50.605Z,5.83
2018-04-15T13:41:18.868Z,6.17
2018-04-15T13:43:47.083Z,5.80
2018-04-15T13:46:15.339Z,4.63
2018-04-15T13:48:45.040Z,4.87
2018-04-15T13:51:13.426Z,3.87
2018-04-15T13:53:42.482Z,4.43
2018-04-15T13:56:10.758Z,4.27
2018-04-15T13:58:39.016Z,3.80
2018-04-15T14:01:07.346Z,4.57
2018-04-15T14:03:35.580Z,3.87
2018-04-15T14:06:03.905Z,4.87
2018-04-15T14:08:32.172Z,4.80
2018-04-15T14:11:00.467Z,4.90
2018-04-15T14:13:30.229Z,5.17
2018-04-15T14:15:59.208Z,5.67
2018-04-15T14:18:27.552Z,5.53
2018-04-15T14:20:55.838Z,5.70
2018-04-15T14:23:24.158Z,5.80
2018-04-15T14:25:53.133Z,5.40
2018-04-15T14:28:22.181Z,5.70
2018-04-15T14:30:50.659Z,5.67
2018-04-15T14:33:18.951Z,5.70
2018-04-15T14:35:47.241Z,6.57
2018-04-15T14:38:16.025Z,6.10
2018-04-15T14:40:44.319Z,6.40
2018-04-15T14:43:14.045Z,6.43
2018-04-15T14:45:42.395Z,6.40
2018-04-15T14:48:11.380Z,6.17
2018-04-15T14:50:39.681Z,5.90
2018-04-15T14:53:08.809Z,6.37
2018-04-15T14:55:37.154Z,6.13
2018-04-15T14:58:06.909Z,6.53
2018-04-15T15:00:35.879Z,6.77
2018-04-15T15:03:04.390Z,7.17
2018-04-15T15:05:32.668Z,7.47
2018-04-15T15:08:01.680Z,7.80
2018-04-15T15:10:30.975Z,7.20
2018-04-15T15:12:59.930Z,7.30
2018-04-15T15:15:28.185Z,5.83
2018-04-15T15:17:56.465Z,5.70
2018-04-15T15:20:24.948Z,5.83
2018-04-15T15:22:54.694Z,5.40
2018-04-15T15:25:23.020Z,5.67
2018-04-15T15:27:51.229Z,5.20
2018-04-15T15:30:20.992Z,4.90
2018-04-15T15:32:49.404Z,4.40
2018-04-15T15:35:19.179Z,4.27
2018-04-15T15:37:48.231Z,4.07
2018-04-15T15:40:16.460Z,3.80
2018-04-15T15:42:45.465Z,4.00
2018-04-15T15:45:13.832Z,3.70
2018-04-15T15:47:42.794Z,3.37
2018-04-15T15:50:12.526Z,3.63
2018-04-15T15:52:41.553Z,3.37
2018-04-15T15:55:09.736Z,3.40
2018-04-15T15:57:37.961Z,3.60
2018-04-15T16:00:06.333Z,3.07
2018-04-15T16:02:36.219Z,3.17
2018-04-15T16:05:04.459Z,3.20
2018-04-15T16:07:32.781Z,3.07
2018-04-15T16:10:00.996Z,2.80
2018-04-15T16:12:30.665Z,2.90
2018-04-15T16:14:58.873Z,2.73
2018-04-15T16:17:27.163Z,2.53
2018-04-15T16:19:56.312Z,3.10
2018-04-15T16:22:24.519Z,2.80
2018-04-15T16:24:53.599Z,3.20
2018-04-15T16:27:21.821Z,3.20
2018-04-15T16:29:50.986Z,2.90
2018-04-15T16:32:20.787Z,3.20
2018-04-15T16:34:49.026Z,2.70
2018-04-15T16:37:17.267Z,3.10
2018-04-15T16:39:45.561Z,3.90
2018-04-15T16:42:14.672Z,3.70
2018-04-15T16:44:42.925Z,3.70
2018-04-15T16:47:11.233Z,3.50
2018-04-15T16:49:39.538Z,4.03
2018-04-15T16:52:08.547Z,4.40
2018-04-15T16:54:36.938Z,4.70
2018-04-15T16:57:05.193Z,3.93
2018-04-15T16:59:33.459Z,4.20
2018-04-15T17:02:01.676Z,4.63
2018-04-15T17:04:29.943Z,3.80
2018-04-15T17:06:59.337Z,3.90
2018-04-15T17:09:27.542Z,3.13
2018-04-15T17:11:57.325Z,3.47
2018-04-15T17:14:26.338Z,2.70
2018-04-15T17:16:54.688Z,3.00
2018-04-15T17:19:23.067Z,3.50
2018-04-15T17:21:51.323Z,3.20
2018-04-15T17:24:19.539Z,2.93
2018-04-15T17:26:48.643Z,3.10
2018-04-15T17:29:16.927Z,2.60
2018-04-15T17:31:46.717Z,3.20
2018-04-15T17:34:15.061Z,3.13
2018-04-15T17:36:43.262Z,3.47
2018-04-15T17:39:11.443Z,3.40
2018-04-15T17:41:39.835Z,3.67
2018-04-15T17:44:08.069Z,4.07
2018-04-15T17:46:37.110Z,3.80
2018-04-15T17:49:09.079Z,3.80
2018-04-15T17:51:38.178Z,4.60
2018-04-15T17:54:09.080Z,4.50
2018-04-15T17:56:37.416Z,4.23
2018-04-15T17:59:07.135Z,3.50
2018-04-15T18:01:36.373Z,3.90
2018-04-15T18:04:04.572Z,3.50
2018-04-15T18:06:32.959Z,3.97
2018-04-15T18:09:01.221Z,3.80
2018-04-15T18:11:29.438Z,3.70
2018-04-15T18:13:58.503Z,3.97
2018-04-15T18:16:26.797Z,4.53
2018-04-15T18:18:55.057Z,5.00
2018-04-15T18:21:23.353Z,11.73
2018-04-15T18:23:51.641Z,10.77
2018-04-15T18:26:20.460Z,9.80
2018-04-15T18:29:07.312Z,8.97
2018-04-15T18:31:59.614Z,6.40
2018-04-15T18:37:39.839Z,4.90
2018-04-15T18:40:10.811Z,4.67
2018-04-15T18:42:39.071Z,4.67
2018-04-15T18:45:07.288Z,4.60
2018-04-15T18:47:35.640Z,4.50
2018-04-15T18:50:04.851Z,4.60
2018-04-15T18:52:33.849Z,4.40
2018-04-15T18:55:02.836Z,3.93
2018-04-15T18:57:31.183Z,4.07
2018-04-15T18:59:59.571Z,4.27
2018-04-15T19:02:27.793Z,4.40
2018-04-15T19:04:58.740Z,4.43
2018-04-15T19:07:29.749Z,4.83
2018-04-15T19:09:58.115Z,4.73
2018-04-15T19:12:26.315Z,4.57
2018-04-15T19:14:56.398Z,4.87
2018-04-15T19:17:24.628Z,4.60
2018-04-15T19:19:53.600Z,5.20
2018-04-15T19:22:21.790Z,5.40
2018-04-15T19:24:50.796Z,5.57
2018-04-15T19:27:19.960Z,5.27
2018-04-15T19:29:48.168Z,5.40
2018-04-15T19:32:16.510Z,4.97
2018-04-15T19:34:44.879Z,4.90
2018-04-15T19:37:13.105Z,5.20
2018-04-15T19:39:42.324Z,4.50
2018-04-15T19:42:10.556Z,5.50
2018-04-15T19:44:38.811Z,5.37
2018-04-15T19:47:07.215Z,5.37
2018-04-15T19:49:35.575Z,5.40
2018-04-15T19:52:04.079Z,5.77
2018-04-15T19:54:32.304Z,5.60
2018-04-15T19:57:01.156Z,6.03
2018-04-15T19:59:29.809Z,5.80
2018-04-15T20:01:58.042Z,6.10
2018-04-15T20:04:27.070Z,6.83
2018-04-15T20:06:56.183Z,6.53
2018-04-15T20:09:24.421Z,6.23
2018-04-15T20:11:52.705Z,6.67
2018-04-15T20:14:21.313Z,6.70
2018-04-15T20:16:50.407Z,6.27
2018-04-15T20:19:18.715Z,6.07
2018-04-15T20:21:46.986Z,6.63
2018-04-15T20:24:15.245Z,6.30
2018-04-15T20:26:43.636Z,6.53
2018-04-15T20:29:11.856Z,6.63
2018-04-15T20:31:41.615Z,7.13
2018-04-15T20:34:13.027Z,6.13
2018-04-15T20:36:41.919Z,7.07
2018-04-15T20:39:11.878Z,6.60
2018-04-15T20:41:40.180Z,7.20
2018-04-15T20:44:08.498Z,7.00
2018-04-15T20:46:36.762Z,5.63
2018-04-15T20:49:04.971Z,4.50
2018-04-15T20:51:33.964Z,4.67
2018-04-15T20:54:17.572Z,4.10
2018-04-15T20:56:45.776Z,3.87
2018-04-15T20:59:14.213Z,3.93
2018-04-15T21:01:43.245Z,3.93
2018-04-15T21:04:11.493Z,4.20
2018-04-15T21:06:41.422Z,4.10
2018-04-15T21:09:10.563Z,3.80
2018-04-15T21:11:38.883Z,3.63
2018-04-15T21:14:08.628Z,3.77
2018-04-15T21:16:37.491Z,3.83
2018-04-15T21:19:05.999Z,3.67
2018-04-15T21:21:34.465Z,3.37
2018-04-15T21:24:03.488Z,3.50
2018-04-15T21:26:32.026Z,3.30
2018-04-15T21:29:00.233Z,3.57
2018-04-15T21:31:28.591Z,3.50
2018-04-15T21:33:56.801Z,3.67
2018-04-15T21:36:25.105Z,3.40
2018-04-15T21:38:53.395Z,3.70
2018-04-15T21:41:21.695Z,3.13
2018-04-15T21:43:49.925Z,3.20
2018-04-15T21:46:18.357Z,3.63
2018-04-15T21:48:46.813Z,2.93
2018-04-15T21:51:15.081Z,3.33
2018-04-15T21:53:43.332Z,2.93
2018-04-15T21:56:12.393Z,2.80
2018-04-15T21:58:40.662Z,2.87
2018-04-15T22:01:08.948Z,2.77
2018-04-15T22:03:37.281Z,2.90
2018-04-15T22:06:06.370Z,2.90
2018-04-15T22:08:34.602Z,2.53
2018-04-15T22:11:03.665Z,3.00
2018-04-15T22:13:32.034Z,3.20
2018-04-15T22:16:00.430Z,2.93
2018-04-15T22:18:28.812Z,3.07
2018-04-15T22:20:57.910Z,2.80
2018-04-15T22:23:26.275Z,3.10
2018-04-15T22:25:54.498Z,2.90
2018-04-15T22:28:22.735Z,2.70
2018-04-15T22:30:51.107Z,3.00
2018-04-15T22:33:19.395Z,3.10
2018-04-15T22:35:47.624Z,3.50
2018-04-15T22:38:16.609Z,3.23
2018-04-15T22:40:45.626Z,3.53
2018-04-15T22:43:14.764Z,3.30
2018-04-15T22:45:43.040Z,3.70
2018-04-15T22:48:11.326Z,4.10
2018-04-15T22:50:39.584Z,3.83
2018-04-15T22:53:07.894Z,4.17
2018-04-15T22:55:36.254Z,3.90
2018-04-15T22:58:04.642Z,4.40
2018-04-15T23:00:32.873Z,4.70
2018-04-15T23:03:01.480Z,4.40
2018-04-15T23:05:29.776Z,4.47
2018-04-15T23:07:58.029Z,4.77
2018-04-15T23:10:26.387Z,4.60
2018-04-15T23:12:54.614Z,5.60
2018-04-15T23:15:22.999Z,5.10
2018-04-15T23:17:51.211Z,4.97
2018-04-15T23:20:19.419Z,4.97
2018-04-15T23:22:49.006Z,5.60
2018-04-15T23:25:17.980Z,4.97
2018-04-15T23:27:47.218Z,5.47
2018-04-15T23:30:16.164Z,5.17
2018-04-15T23:32:44.398Z,5.20
2018-04-15T23:35:12.644Z,5.60
2018-04-15T23:37:40.849Z,6.57
2018-04-15T23:40:10.018Z,6.20
2018-04-15T23:42:39.165Z,5.27
2018-04-15T23:45:08.130Z,5.70
2018-04-15T23:47:37.240Z,5.53
2018-04-15T23:50:05.653Z,5.53
2018-04-15T23:52:33.918Z,4.83
2018-04-15T23:55:02.121Z,4.70
2018-04-15T23:57:30.474Z,4.67
2018-04-15T23:59:58.674Z,4.90
